Farmersville, New York
Current Conditions -  °F | °C
As of 7:15 PM on Monday 20 Oct 2014 (Local Time) from KOLE Reporting Station
Light Rain Light Rain  
Wind Chill: 45°   Ceiling: 4300
Heat Index: 48°   Visibility: 10mi
Dew Point: 43°   Wind: 7mph
Humidity: 82%   Direction: 210°SSW
Pressure: 29.85"   Gusts: NA
Location:  42.4422°N, 78.2936°W
Report Text: KOLE 202315Z AUTO 21006KT 10SM -RA SCT035 BKN043 OVC090 09/06 A2985 RMK AO2
Loading
Personal Weather Stations






























Interactive Weather Map
Tropical Storm Tracking
New forecast layout! Learn more

10-Day Weather Forecast

Advertisements
Track Severe Weather on mobile